sensor_id;sensor_type;location;lat;lon;timestamp;P1;durP1;ratioP1;P2;durP2;ratioP2
64339;SDS011;63709;53.258;-8.814;2023-04-24T00:01:18;24.40;;;6.70;;
64339;SDS011;63709;53.258;-8.814;2023-04-24T00:03:44;19.40;;;5.45;;
64339;SDS011;63709;53.258;-8.814;2023-04-24T00:06:10;18.58;;;5.88;;
64339;SDS011;63709;53.258;-8.814;2023-04-24T00:08:36;24.27;;;6.63;;
64339;SDS011;63709;53.258;-8.814;2023-04-24T00:11:05;22.10;;;5.47;;
64339;SDS011;63709;53.258;-8.814;2023-04-24T00:13:31;26.35;;;5.40;;
64339;SDS011;63709;53.258;-8.814;2023-04-24T00:15:57;27.85;;;5.80;;
64339;SDS011;63709;53.258;-8.814;2023-04-24T00:18:22;18.92;;;5.05;;
64339;SDS011;63709;53.258;-8.814;2023-04-24T00:20:48;23.27;;;5.45;;
64339;SDS011;63709;53.258;-8.814;2023-04-24T00:23:14;21.58;;;5.32;;
64339;SDS011;63709;53.258;-8.814;2023-04-24T00:25:40;26.25;;;5.30;;
64339;SDS011;63709;53.258;-8.814;2023-04-24T00:28:07;25.35;;;4.90;;
64339;SDS011;63709;53.258;-8.814;2023-04-24T00:30:32;14.82;;;5.60;;
64339;SDS011;63709;53.258;-8.814;2023-04-24T00:32:58;23.60;;;5.68;;
64339;SDS011;63709;53.258;-8.814;2023-04-24T00:35:24;20.17;;;5.10;;
64339;SDS011;63709;53.258;-8.814;2023-04-24T00:37:50;20.85;;;5.05;;
64339;SDS011;63709;53.258;-8.814;2023-04-24T00:40:18;27.20;;;6.05;;
64339;SDS011;63709;53.258;-8.814;2023-04-24T00:42:44;26.85;;;6.60;;
64339;SDS011;63709;53.258;-8.814;2023-04-24T00:45:11;29.38;;;5.75;;
64339;SDS011;63709;53.258;-8.814;2023-04-24T00:47:37;18.40;;;5.40;;
64339;SDS011;63709;53.258;-8.814;2023-04-24T00:52:30;22.90;;;5.38;;
64339;SDS011;63709;53.258;-8.814;2023-04-24T00:54:58;22.85;;;5.38;;
64339;SDS011;63709;53.258;-8.814;2023-04-24T00:57:24;17.92;;;5.53;;
64339;SDS011;63709;53.258;-8.814;2023-04-24T00:59:51;19.42;;;6.35;;
64339;SDS011;63709;53.258;-8.814;2023-04-24T01:02:18;27.75;;;6.00;;
64339;SDS011;63709;53.258;-8.814;2023-04-24T01:04:45;19.42;;;5.32;;
64339;SDS011;63709;53.258;-8.814;2023-04-24T01:07:12;18.15;;;5.35;;
64339;SDS011;63709;53.258;-8.814;2023-04-24T01:09:39;20.00;;;5.40;;
64339;SDS011;63709;53.258;-8.814;2023-04-24T01:12:08;17.05;;;5.38;;
64339;SDS011;63709;53.258;-8.814;2023-04-24T01:14:36;23.98;;;4.97;;
64339;SDS011;63709;53.258;-8.814;2023-04-24T01:17:03;18.15;;;5.72;;
64339;SDS011;63709;53.258;-8.814;2023-04-24T01:19:29;16.30;;;5.03;;
64339;SDS011;63709;53.258;-8.814;2023-04-24T01:21:56;17.48;;;4.97;;
64339;SDS011;63709;53.258;-8.814;2023-04-24T01:24:24;17.58;;;5.18;;
64339;SDS011;63709;53.258;-8.814;2023-04-24T01:26:50;21.98;;;5.40;;
64339;SDS011;63709;53.258;-8.814;2023-04-24T01:29:15;20.40;;;4.97;;
64339;SDS011;63709;53.258;-8.814;2023-04-24T01:31:41;17.55;;;4.70;;
64339;SDS011;63709;53.258;-8.814;2023-04-24T01:34:07;21.27;;;5.13;;
64339;SDS011;63709;53.258;-8.814;2023-04-24T01:36:33;16.70;;;4.57;;
64339;SDS011;63709;53.258;-8.814;2023-04-24T01:39:01;19.48;;;5.10;;
64339;SDS011;63709;53.258;-8.814;2023-04-24T01:41:28;18.95;;;4.32;;
64339;SDS011;63709;53.258;-8.814;2023-04-24T01:43:54;14.82;;;4.65;;
64339;SDS011;63709;53.258;-8.814;2023-04-24T01:46:22;21.38;;;5.72;;
64339;SDS011;63709;53.258;-8.814;2023-04-24T01:48:48;15.23;;;4.80;;
64339;SDS011;63709;53.258;-8.814;2023-04-24T01:51:13;13.50;;;4.47;;
64339;SDS011;63709;53.258;-8.814;2023-04-24T01:53:39;18.17;;;4.93;;
64339;SDS011;63709;53.258;-8.814;2023-04-24T01:56:06;14.48;;;4.10;;
64339;SDS011;63709;53.258;-8.814;2023-04-24T01:58:32;25.80;;;5.53;;
64339;SDS011;63709;53.258;-8.814;2023-04-24T02:00:58;11.90;;;4.78;;
64339;SDS011;63709;53.258;-8.814;2023-04-24T02:03:24;13.32;;;4.13;;
64339;SDS011;63709;53.258;-8.814;2023-04-24T02:05:52;21.08;;;4.25;;
64339;SDS011;63709;53.258;-8.814;2023-04-24T02:08:17;21.38;;;4.60;;
64339;SDS011;63709;53.258;-8.814;2023-04-24T02:10:43;18.00;;;4.03;;
64339;SDS011;63709;53.258;-8.814;2023-04-24T02:13:11;24.40;;;4.57;;
64339;SDS011;63709;53.258;-8.814;2023-04-24T02:15:38;16.85;;;4.45;;
64339;SDS011;63709;53.258;-8.814;2023-04-24T02:18:03;18.50;;;4.97;;
64339;SDS011;63709;53.258;-8.814;2023-04-24T02:20:29;14.85;;;4.85;;
64339;SDS011;63709;53.258;-8.814;2023-04-24T02:22:55;14.63;;;4.10;;
64339;SDS011;63709;53.258;-8.814;2023-04-24T02:25:22;15.25;;;4.30;;
64339;SDS011;63709;53.258;-8.814;2023-04-24T02:27:48;19.30;;;4.50;;
64339;SDS011;63709;53.258;-8.814;2023-04-24T02:30:14;14.80;;;3.92;;
64339;SDS011;63709;53.258;-8.814;2023-04-24T02:32:40;17.10;;;5.15;;
64339;SDS011;63709;53.258;-8.814;2023-04-24T02:35:06;13.80;;;4.07;;
64339;SDS011;63709;53.258;-8.814;2023-04-24T02:37:32;16.80;;;4.47;;
64339;SDS011;63709;53.258;-8.814;2023-04-24T02:39:58;11.27;;;4.85;;
64339;SDS011;63709;53.258;-8.814;2023-04-24T02:42:23;12.50;;;4.28;;
64339;SDS011;63709;53.258;-8.814;2023-04-24T02:44:49;13.45;;;3.92;;
64339;SDS011;63709;53.258;-8.814;2023-04-24T02:47:17;12.30;;;3.08;;
64339;SDS011;63709;53.258;-8.814;2023-04-24T02:49:44;13.77;;;3.67;;
64339;SDS011;63709;53.258;-8.814;2023-04-24T02:52:12;13.23;;;3.45;;
64339;SDS011;63709;53.258;-8.814;2023-04-24T02:54:40;16.00;;;4.13;;
64339;SDS011;63709;53.258;-8.814;2023-04-24T02:57:06;17.58;;;4.65;;
64339;SDS011;63709;53.258;-8.814;2023-04-24T02:59:32;15.15;;;3.97;;
64339;SDS011;63709;53.258;-8.814;2023-04-24T03:04:25;14.13;;;3.35;;
64339;SDS011;63709;53.258;-8.814;2023-04-24T03:06:51;8.82;;;3.20;;
64339;SDS011;63709;53.258;-8.814;2023-04-24T03:09:20;14.95;;;3.45;;
64339;SDS011;63709;53.258;-8.814;2023-04-24T03:11:47;8.23;;;2.90;;
64339;SDS011;63709;53.258;-8.814;2023-04-24T03:14:16;9.00;;;3.20;;
64339;SDS011;63709;53.258;-8.814;2023-04-24T03:16:41;12.95;;;3.30;;
64339;SDS011;63709;53.258;-8.814;2023-04-24T03:19:09;8.25;;;2.92;;
64339;SDS011;63709;53.258;-8.814;2023-04-24T03:21:38;9.48;;;3.15;;
64339;SDS011;63709;53.258;-8.814;2023-04-24T03:24:06;10.50;;;3.38;;
64339;SDS011;63709;53.258;-8.814;2023-04-24T03:26:33;11.30;;;3.28;;
64339;SDS011;63709;53.258;-8.814;2023-04-24T03:28:59;7.15;;;3.15;;
64339;SDS011;63709;53.258;-8.814;2023-04-24T03:31:25;10.35;;;3.10;;
64339;SDS011;63709;53.258;-8.814;2023-04-24T03:33:53;13.43;;;3.78;;
64339;SDS011;63709;53.258;-8.814;2023-04-24T03:36:19;10.25;;;3.40;;
64339;SDS011;63709;53.258;-8.814;2023-04-24T03:38:46;9.18;;;3.20;;
64339;SDS011;63709;53.258;-8.814;2023-04-24T03:41:15;9.98;;;3.55;;
64339;SDS011;63709;53.258;-8.814;2023-04-24T03:43:43;16.15;;;3.88;;
64339;SDS011;63709;53.258;-8.814;2023-04-24T03:46:11;11.90;;;3.95;;
64339;SDS011;63709;53.258;-8.814;2023-04-24T03:48:38;13.35;;;4.15;;
64339;SDS011;63709;53.258;-8.814;2023-04-24T03:51:08;11.27;;;3.53;;
64339;SDS011;63709;53.258;-8.814;2023-04-24T03:53:34;9.30;;;4.25;;
64339;SDS011;63709;53.258;-8.814;2023-04-24T03:56:00;9.73;;;3.70;;
64339;SDS011;63709;53.258;-8.814;2023-04-24T03:58:33;9.55;;;3.53;;
64339;SDS011;63709;53.258;-8.814;2023-04-24T04:00:59;7.60;;;3.75;;
64339;SDS011;63709;53.258;-8.814;2023-04-24T04:03:28;9.10;;;3.72;;
64339;SDS011;63709;53.258;-8.814;2023-04-24T04:05:53;14.75;;;4.63;;
64339;SDS011;63709;53.258;-8.814;2023-04-24T04:08:19;12.18;;;3.55;;
64339;SDS011;63709;53.258;-8.814;2023-04-24T04:10:45;8.48;;;4.07;;
64339;SDS011;63709;53.258;-8.814;2023-04-24T04:13:11;10.27;;;3.88;;
64339;SDS011;63709;53.258;-8.814;2023-04-24T04:15:37;9.35;;;3.60;;
64339;SDS011;63709;53.258;-8.814;2023-04-24T04:18:03;6.05;;;3.35;;
64339;SDS011;63709;53.258;-8.814;2023-04-24T04:20:30;5.40;;;3.08;;
64339;SDS011;63709;53.258;-8.814;2023-04-24T04:23:01;8.88;;;3.65;;
64339;SDS011;63709;53.258;-8.814;2023-04-24T04:25:27;9.65;;;4.13;;
64339;SDS011;63709;53.258;-8.814;2023-04-24T04:27:55;8.52;;;3.58;;
64339;SDS011;63709;53.258;-8.814;2023-04-24T04:30:21;9.98;;;3.50;;
64339;SDS011;63709;53.258;-8.814;2023-04-24T04:32:46;8.25;;;3.60;;
64339;SDS011;63709;53.258;-8.814;2023-04-24T04:35:13;6.05;;;2.80;;
64339;SDS011;63709;53.258;-8.814;2023-04-24T04:37:38;9.65;;;3.15;;
64339;SDS011;63709;53.258;-8.814;2023-04-24T04:40:05;8.98;;;3.20;;
64339;SDS011;63709;53.258;-8.814;2023-04-24T04:42:32;8.05;;;3.10;;
64339;SDS011;63709;53.258;-8.814;2023-04-24T04:44:59;5.85;;;3.33;;
64339;SDS011;63709;53.258;-8.814;2023-04-24T04:47:25;7.35;;;3.00;;
64339;SDS011;63709;53.258;-8.814;2023-04-24T04:49:52;8.52;;;2.95;;
64339;SDS011;63709;53.258;-8.814;2023-04-24T04:52:18;8.02;;;3.45;;
64339;SDS011;63709;53.258;-8.814;2023-04-24T04:57:14;5.80;;;2.80;;
64339;SDS011;63709;53.258;-8.814;2023-04-24T04:59:41;5.95;;;2.67;;
64339;SDS011;63709;53.258;-8.814;2023-04-24T05:02:07;7.00;;;2.78;;
64339;SDS011;63709;53.258;-8.814;2023-04-24T05:04:33;5.18;;;2.42;;
64339;SDS011;63709;53.258;-8.814;2023-04-24T05:06:59;7.15;;;2.50;;
64339;SDS011;63709;53.258;-8.814;2023-04-24T05:09:29;4.50;;;2.28;;
64339;SDS011;63709;53.258;-8.814;2023-04-24T05:11:55;6.18;;;2.05;;
64339;SDS011;63709;53.258;-8.814;2023-04-24T05:14:21;5.25;;;2.28;;
64339;SDS011;63709;53.258;-8.814;2023-04-24T05:16:48;6.93;;;2.20;;
64339;SDS011;63709;53.258;-8.814;2023-04-24T05:19:14;4.75;;;1.92;;
64339;SDS011;63709;53.258;-8.814;2023-04-24T05:21:40;3.30;;;1.80;;
64339;SDS011;63709;53.258;-8.814;2023-04-24T05:24:06;5.25;;;1.90;;
64339;SDS011;63709;53.258;-8.814;2023-04-24T05:28:59;2.88;;;1.70;;
64339;SDS011;63709;53.258;-8.814;2023-04-24T05:31:27;6.28;;;2.10;;
64339;SDS011;63709;53.258;-8.814;2023-04-24T05:33:54;3.58;;;1.30;;
64339;SDS011;63709;53.258;-8.814;2023-04-24T05:36:19;2.72;;;1.40;;
64339;SDS011;63709;53.258;-8.814;2023-04-24T05:38:45;3.85;;;1.60;;
64339;SDS011;63709;53.258;-8.814;2023-04-24T05:41:11;3.45;;;1.40;;
64339;SDS011;63709;53.258;-8.814;2023-04-24T05:43:36;2.78;;;1.13;;
64339;SDS011;63709;53.258;-8.814;2023-04-24T05:46:01;3.55;;;1.20;;
64339;SDS011;63709;53.258;-8.814;2023-04-24T05:48:27;6.68;;;1.80;;
64339;SDS011;63709;53.258;-8.814;2023-04-24T05:50:53;3.35;;;1.40;;
64339;SDS011;63709;53.258;-8.814;2023-04-24T05:53:19;2.33;;;0.80;;
64339;SDS011;63709;53.258;-8.814;2023-04-24T05:55:44;2.15;;;1.17;;
64339;SDS011;63709;53.258;-8.814;2023-04-24T05:58:11;2.97;;;1.20;;
64339;SDS011;63709;53.258;-8.814;2023-04-24T06:00:37;4.65;;;1.52;;
64339;SDS011;63709;53.258;-8.814;2023-04-24T06:03:05;5.10;;;1.23;;
64339;SDS011;63709;53.258;-8.814;2023-04-24T06:05:31;5.78;;;0.90;;
64339;SDS011;63709;53.258;-8.814;2023-04-24T06:10:23;4.20;;;1.00;;
64339;SDS011;63709;53.258;-8.814;2023-04-24T06:12:49;2.25;;;0.93;;
64339;SDS011;63709;53.258;-8.814;2023-04-24T06:15:15;3.25;;;1.33;;
64339;SDS011;63709;53.258;-8.814;2023-04-24T06:17:40;2.38;;;0.93;;
64339;SDS011;63709;53.258;-8.814;2023-04-24T06:20:06;2.00;;;1.00;;
64339;SDS011;63709;53.258;-8.814;2023-04-24T06:22:33;2.90;;;1.10;;
64339;SDS011;63709;53.258;-8.814;2023-04-24T06:25:00;1.17;;;0.70;;
64339;SDS011;63709;53.258;-8.814;2023-04-24T06:27:26;3.85;;;0.93;;
64339;SDS011;63709;53.258;-8.814;2023-04-24T06:29:52;2.47;;;0.90;;
64339;SDS011;63709;53.258;-8.814;2023-04-24T06:32:22;2.10;;;0.82;;
64339;SDS011;63709;53.258;-8.814;2023-04-24T06:34:50;3.38;;;0.70;;
64339;SDS011;63709;53.258;-8.814;2023-04-24T06:37:20;2.15;;;1.10;;
64339;SDS011;63709;53.258;-8.814;2023-04-24T06:39:46;1.88;;;1.15;;
64339;SDS011;63709;53.258;-8.814;2023-04-24T06:42:11;3.35;;;1.23;;
64339;SDS011;63709;53.258;-8.814;2023-04-24T06:44:37;1.73;;;0.85;;
64339;SDS011;63709;53.258;-8.814;2023-04-24T06:47:09;3.03;;;1.20;;
64339;SDS011;63709;53.258;-8.814;2023-04-24T06:49:36;3.53;;;1.45;;
64339;SDS011;63709;53.258;-8.814;2023-04-24T06:52:03;4.82;;;1.50;;
64339;SDS011;63709;53.258;-8.814;2023-04-24T06:54:29;4.38;;;1.65;;
64339;SDS011;63709;53.258;-8.814;2023-04-24T06:56:57;2.72;;;1.40;;
64339;SDS011;63709;53.258;-8.814;2023-04-24T06:59:24;3.45;;;1.40;;
64339;SDS011;63709;53.258;-8.814;2023-04-24T07:01:50;2.72;;;1.50;;
64339;SDS011;63709;53.258;-8.814;2023-04-24T07:04:19;3.42;;;1.77;;
64339;SDS011;63709;53.258;-8.814;2023-04-24T07:06:45;6.57;;;2.45;;
64339;SDS011;63709;53.258;-8.814;2023-04-24T07:09:14;4.65;;;2.05;;
64339;SDS011;63709;53.258;-8.814;2023-04-24T07:11:45;10.77;;;2.88;;
64339;SDS011;63709;53.258;-8.814;2023-04-24T07:14:12;7.10;;;2.65;;
64339;SDS011;63709;53.258;-8.814;2023-04-24T07:16:38;8.43;;;2.78;;
64339;SDS011;63709;53.258;-8.814;2023-04-24T07:19:05;8.02;;;2.63;;
64339;SDS011;63709;53.258;-8.814;2023-04-24T07:21:31;10.52;;;2.70;;
64339;SDS011;63709;53.258;-8.814;2023-04-24T07:23:57;10.80;;;3.05;;
64339;SDS011;63709;53.258;-8.814;2023-04-24T07:26:23;6.80;;;2.63;;
64339;SDS011;63709;53.258;-8.814;2023-04-24T07:28:49;14.23;;;3.38;;
64339;SDS011;63709;53.258;-8.814;2023-04-24T07:31:15;9.98;;;2.92;;
64339;SDS011;63709;53.258;-8.814;2023-04-24T07:33:41;6.10;;;2.53;;
64339;SDS011;63709;53.258;-8.814;2023-04-24T07:36:06;6.95;;;2.97;;
64339;SDS011;63709;53.258;-8.814;2023-04-24T07:38:32;9.23;;;3.10;;
64339;SDS011;63709;53.258;-8.814;2023-04-24T07:40:58;7.65;;;2.80;;
64339;SDS011;63709;53.258;-8.814;2023-04-24T07:43:24;7.28;;;2.67;;
64339;SDS011;63709;53.258;-8.814;2023-04-24T07:45:50;15.98;;;3.40;;
64339;SDS011;63709;53.258;-8.814;2023-04-24T07:48:16;7.35;;;2.47;;
64339;SDS011;63709;53.258;-8.814;2023-04-24T07:50:43;12.95;;;3.20;;
64339;SDS011;63709;53.258;-8.814;2023-04-24T07:53:09;9.55;;;2.50;;
64339;SDS011;63709;53.258;-8.814;2023-04-24T07:55:35;9.60;;;2.58;;
64339;SDS011;63709;53.258;-8.814;2023-04-24T07:58:01;5.20;;;2.50;;
64339;SDS011;63709;53.258;-8.814;2023-04-24T08:00:26;6.88;;;2.60;;
64339;SDS011;63709;53.258;-8.814;2023-04-24T08:02:52;8.68;;;2.60;;
64339;SDS011;63709;53.258;-8.814;2023-04-24T08:05:18;9.93;;;2.65;;
64339;SDS011;63709;53.258;-8.814;2023-04-24T08:07:45;7.13;;;2.58;;
64339;SDS011;63709;53.258;-8.814;2023-04-24T08:10:14;12.10;;;2.30;;
64339;SDS011;63709;53.258;-8.814;2023-04-24T08:12:41;6.22;;;2.22;;
64339;SDS011;63709;53.258;-8.814;2023-04-24T08:15:07;6.13;;;2.50;;
64339;SDS011;63709;53.258;-8.814;2023-04-24T08:17:34;5.30;;;2.20;;
64339;SDS011;63709;53.258;-8.814;2023-04-24T08:20:03;9.63;;;2.65;;
64339;SDS011;63709;53.258;-8.814;2023-04-24T08:22:31;8.90;;;2.60;;
64339;SDS011;63709;53.258;-8.814;2023-04-24T08:24:58;7.95;;;2.60;;
64339;SDS011;63709;53.258;-8.814;2023-04-24T08:27:25;7.38;;;2.30;;
64339;SDS011;63709;53.258;-8.814;2023-04-24T08:29:52;5.90;;;2.72;;
64339;SDS011;63709;53.258;-8.814;2023-04-24T08:32:18;7.38;;;2.58;;
64339;SDS011;63709;53.258;-8.814;2023-04-24T08:34:44;6.10;;;2.53;;
64339;SDS011;63709;53.258;-8.814;2023-04-24T08:37:12;8.70;;;2.55;;
64339;SDS011;63709;53.258;-8.814;2023-04-24T08:39:39;7.30;;;2.50;;
64339;SDS011;63709;53.258;-8.814;2023-04-24T08:42:05;7.60;;;2.40;;
64339;SDS011;63709;53.258;-8.814;2023-04-24T08:44:34;8.50;;;2.80;;
64339;SDS011;63709;53.258;-8.814;2023-04-24T08:47:02;9.52;;;2.63;;
64339;SDS011;63709;53.258;-8.814;2023-04-24T08:49:29;10.80;;;2.38;;
64339;SDS011;63709;53.258;-8.814;2023-04-24T08:51:57;6.97;;;2.10;;
64339;SDS011;63709;53.258;-8.814;2023-04-24T08:54:25;5.22;;;2.35;;
64339;SDS011;63709;53.258;-8.814;2023-04-24T08:56:52;8.80;;;2.25;;
64339;SDS011;63709;53.258;-8.814;2023-04-24T08:59:21;9.65;;;2.60;;
64339;SDS011;63709;53.258;-8.814;2023-04-24T09:01:47;11.32;;;2.65;;
64339;SDS011;63709;53.258;-8.814;2023-04-24T09:04:16;11.30;;;2.40;;
64339;SDS011;63709;53.258;-8.814;2023-04-24T09:06:46;6.68;;;2.20;;
64339;SDS011;63709;53.258;-8.814;2023-04-24T09:09:19;8.25;;;2.55;;
64339;SDS011;63709;53.258;-8.814;2023-04-24T09:11:51;7.45;;;2.60;;
64339;SDS011;63709;53.258;-8.814;2023-04-24T09:14:19;6.38;;;2.42;;
64339;SDS011;63709;53.258;-8.814;2023-04-24T09:16:46;9.30;;;2.22;;
64339;SDS011;63709;53.258;-8.814;2023-04-24T09:21:39;12.68;;;2.80;;
64339;SDS011;63709;53.258;-8.814;2023-04-24T09:24:08;7.97;;;3.00;;
64339;SDS011;63709;53.258;-8.814;2023-04-24T09:26:43;9.05;;;2.38;;
64339;SDS011;63709;53.258;-8.814;2023-04-24T09:29:13;8.05;;;2.40;;
64339;SDS011;63709;53.258;-8.814;2023-04-24T09:31:42;7.03;;;2.55;;
64339;SDS011;63709;53.258;-8.814;2023-04-24T09:34:18;7.88;;;2.45;;
64339;SDS011;63709;53.258;-8.814;2023-04-24T09:36:47;8.68;;;2.55;;
64339;SDS011;63709;53.258;-8.814;2023-04-24T09:39:14;7.97;;;2.03;;
64339;SDS011;63709;53.258;-8.814;2023-04-24T09:41:46;8.98;;;2.72;;
64339;SDS011;63709;53.258;-8.814;2023-04-24T09:44:17;8.15;;;2.42;;
64339;SDS011;63709;53.258;-8.814;2023-04-24T09:46:57;7.15;;;2.70;;
64339;SDS011;63709;53.258;-8.814;2023-04-24T09:49:26;10.65;;;2.70;;
64339;SDS011;63709;53.258;-8.814;2023-04-24T09:54:37;10.13;;;2.75;;
64339;SDS011;63709;53.258;-8.814;2023-04-24T09:57:07;7.28;;;2.30;;
64339;SDS011;63709;53.258;-8.814;2023-04-24T09:59:33;7.90;;;3.10;;
64339;SDS011;63709;53.258;-8.814;2023-04-24T10:01:59;12.32;;;3.08;;
64339;SDS011;63709;53.258;-8.814;2023-04-24T10:04:26;10.32;;;2.83;;
64339;SDS011;63709;53.258;-8.814;2023-04-24T10:06:56;7.85;;;2.20;;
64339;SDS011;63709;53.258;-8.814;2023-04-24T10:09:23;7.60;;;2.22;;
64339;SDS011;63709;53.258;-8.814;2023-04-24T10:11:52;6.93;;;2.25;;
64339;SDS011;63709;53.258;-8.814;2023-04-24T10:14:21;8.07;;;2.20;;
64339;SDS011;63709;53.258;-8.814;2023-04-24T10:16:54;8.00;;;2.05;;
64339;SDS011;63709;53.258;-8.814;2023-04-24T10:19:22;8.70;;;2.60;;
64339;SDS011;63709;53.258;-8.814;2023-04-24T10:21:51;7.28;;;2.20;;
64339;SDS011;63709;53.258;-8.814;2023-04-24T10:24:19;7.78;;;2.22;;
64339;SDS011;63709;53.258;-8.814;2023-04-24T10:26:46;9.80;;;2.60;;
64339;SDS011;63709;53.258;-8.814;2023-04-24T10:29:14;9.35;;;2.35;;
64339;SDS011;63709;53.258;-8.814;2023-04-24T10:31:46;6.00;;;1.60;;
64339;SDS011;63709;53.258;-8.814;2023-04-24T10:34:12;5.18;;;1.67;;
64339;SDS011;63709;53.258;-8.814;2023-04-24T10:36:51;9.57;;;2.65;;
64339;SDS011;63709;53.258;-8.814;2023-04-24T10:39:21;4.50;;;1.90;;
64339;SDS011;63709;53.258;-8.814;2023-04-24T10:41:48;6.40;;;1.90;;
64339;SDS011;63709;53.258;-8.814;2023-04-24T10:44:15;7.53;;;1.90;;
64339;SDS011;63709;53.258;-8.814;2023-04-24T10:46:45;10.45;;;2.42;;
64339;SDS011;63709;53.258;-8.814;2023-04-24T10:49:13;13.43;;;2.50;;
64339;SDS011;63709;53.258;-8.814;2023-04-24T10:52:22;6.03;;;1.70;;
64339;SDS011;63709;53.258;-8.814;2023-04-24T10:54:41;8.15;;;2.28;;
64339;SDS011;63709;53.258;-8.814;2023-04-24T10:59:46;7.00;;;1.75;;
64339;SDS011;63709;53.258;-8.814;2023-04-24T11:02:16;6.35;;;1.70;;
64339;SDS011;63709;53.258;-8.814;2023-04-24T11:04:44;7.57;;;1.95;;
64339;SDS011;63709;53.258;-8.814;2023-04-24T11:07:13;8.57;;;2.33;;
64339;SDS011;63709;53.258;-8.814;2023-04-24T11:09:38;9.57;;;2.08;;
64339;SDS011;63709;53.258;-8.814;2023-04-24T11:12:10;9.70;;;2.13;;
64339;SDS011;63709;53.258;-8.814;2023-04-24T11:20:06;5.78;;;1.90;;
64339;SDS011;63709;53.258;-8.814;2023-04-24T11:22:36;6.70;;;2.13;;
64339;SDS011;63709;53.258;-8.814;2023-04-24T11:25:05;5.15;;;2.10;;
64339;SDS011;63709;53.258;-8.814;2023-04-24T11:27:41;6.13;;;1.90;;
64339;SDS011;63709;53.258;-8.814;2023-04-24T11:30:08;8.05;;;1.60;;
64339;SDS011;63709;53.258;-8.814;2023-04-24T11:32:37;4.55;;;1.58;;
64339;SDS011;63709;53.258;-8.814;2023-04-24T11:37:42;9.57;;;2.88;;
64339;SDS011;63709;53.258;-8.814;2023-04-24T11:40:16;7.75;;;1.77;;
64339;SDS011;63709;53.258;-8.814;2023-04-24T11:42:49;9.32;;;1.75;;
64339;SDS011;63709;53.258;-8.814;2023-04-24T11:45:17;5.85;;;1.48;;
64339;SDS011;63709;53.258;-8.814;2023-04-24T11:47:46;3.95;;;1.70;;
64339;SDS011;63709;53.258;-8.814;2023-04-24T11:50:17;3.85;;;1.73;;
64339;SDS011;63709;53.258;-8.814;2023-04-24T11:52:47;5.28;;;1.60;;
64339;SDS011;63709;53.258;-8.814;2023-04-24T11:57:39;5.97;;;1.70;;
64339;SDS011;63709;53.258;-8.814;2023-04-24T12:00:21;5.97;;;1.83;;
64339;SDS011;63709;53.258;-8.814;2023-04-24T12:02:50;6.90;;;2.13;;
64339;SDS011;63709;53.258;-8.814;2023-04-24T12:05:24;8.60;;;1.90;;
64339;SDS011;63709;53.258;-8.814;2023-04-24T12:07:51;5.22;;;1.50;;
64339;SDS011;63709;53.258;-8.814;2023-04-24T12:10:21;5.55;;;1.73;;
64339;SDS011;63709;53.258;-8.814;2023-04-24T12:12:49;5.90;;;1.58;;
64339;SDS011;63709;53.258;-8.814;2023-04-24T12:15:22;5.15;;;1.80;;
64339;SDS011;63709;53.258;-8.814;2023-04-24T12:17:50;5.88;;;1.73;;
64339;SDS011;63709;53.258;-8.814;2023-04-24T12:20:16;5.75;;;1.85;;
64339;SDS011;63709;53.258;-8.814;2023-04-24T12:22:49;5.70;;;1.73;;
64339;SDS011;63709;53.258;-8.814;2023-04-24T12:25:19;6.70;;;2.00;;
64339;SDS011;63709;53.258;-8.814;2023-04-24T12:27:46;5.55;;;1.50;;
64339;SDS011;63709;53.258;-8.814;2023-04-24T12:30:18;4.32;;;1.55;;
64339;SDS011;63709;53.258;-8.814;2023-04-24T12:32:44;8.63;;;1.90;;
64339;SDS011;63709;53.258;-8.814;2023-04-24T12:35:12;4.60;;;1.70;;
64339;SDS011;63709;53.258;-8.814;2023-04-24T12:37:41;4.57;;;1.70;;
64339;SDS011;63709;53.258;-8.814;2023-04-24T12:40:09;7.97;;;1.55;;
64339;SDS011;63709;53.258;-8.814;2023-04-24T12:42:42;6.53;;;2.30;;
64339;SDS011;63709;53.258;-8.814;2023-04-24T12:45:10;6.90;;;1.65;;
64339;SDS011;63709;53.258;-8.814;2023-04-24T12:47:40;5.85;;;1.73;;
64339;SDS011;63709;53.258;-8.814;2023-04-24T12:50:07;7.18;;;1.65;;
64339;SDS011;63709;53.258;-8.814;2023-04-24T12:52:35;5.88;;;1.92;;
64339;SDS011;63709;53.258;-8.814;2023-04-24T12:55:02;3.67;;;1.30;;
64339;SDS011;63709;53.258;-8.814;2023-04-24T12:57:30;7.43;;;2.03;;
64339;SDS011;63709;53.258;-8.814;2023-04-24T12:59:56;4.55;;;1.70;;
64339;SDS011;63709;53.258;-8.814;2023-04-24T13:02:24;6.95;;;2.10;;
64339;SDS011;63709;53.258;-8.814;2023-04-24T13:04:52;6.72;;;1.92;;
64339;SDS011;63709;53.258;-8.814;2023-04-24T13:07:18;7.45;;;1.88;;
64339;SDS011;63709;53.258;-8.814;2023-04-24T13:09:44;7.25;;;1.73;;
64339;SDS011;63709;53.258;-8.814;2023-04-24T13:14:36;3.72;;;1.70;;
64339;SDS011;63709;53.258;-8.814;2023-04-24T13:17:02;5.28;;;1.90;;
64339;SDS011;63709;53.258;-8.814;2023-04-24T13:21:55;7.05;;;1.80;;
64339;SDS011;63709;53.258;-8.814;2023-04-24T13:24:25;5.53;;;1.70;;
64339;SDS011;63709;53.258;-8.814;2023-04-24T13:26:51;4.10;;;1.60;;
64339;SDS011;63709;53.258;-8.814;2023-04-24T13:29:18;4.70;;;1.80;;
64339;SDS011;63709;53.258;-8.814;2023-04-24T13:31:46;5.85;;;1.35;;
64339;SDS011;63709;53.258;-8.814;2023-04-24T13:34:13;4.18;;;1.75;;
64339;SDS011;63709;53.258;-8.814;2023-04-24T13:36:39;5.03;;;1.73;;
64339;SDS011;63709;53.258;-8.814;2023-04-24T13:39:05;5.78;;;1.60;;
64339;SDS011;63709;53.258;-8.814;2023-04-24T13:41:32;6.22;;;2.00;;
64339;SDS011;63709;53.258;-8.814;2023-04-24T13:43:58;3.70;;;1.60;;
64339;SDS011;63709;53.258;-8.814;2023-04-24T13:46:25;6.38;;;1.98;;
64339;SDS011;63709;53.258;-8.814;2023-04-24T13:48:53;5.60;;;2.10;;
64339;SDS011;63709;53.258;-8.814;2023-04-24T13:51:18;5.88;;;2.05;;
64339;SDS011;63709;53.258;-8.814;2023-04-24T13:56:13;5.65;;;2.00;;
64339;SDS011;63709;53.258;-8.814;2023-04-24T14:01:04;5.63;;;1.63;;
64339;SDS011;63709;53.258;-8.814;2023-04-24T14:05:58;9.25;;;1.77;;
64339;SDS011;63709;53.258;-8.814;2023-04-24T14:08:26;7.65;;;1.92;;
64339;SDS011;63709;53.258;-8.814;2023-04-24T14:10:51;7.65;;;2.00;;
64339;SDS011;63709;53.258;-8.814;2023-04-24T14:13:17;8.00;;;2.50;;
64339;SDS011;63709;53.258;-8.814;2023-04-24T14:15:43;9.32;;;2.35;;
64339;SDS011;63709;53.258;-8.814;2023-04-24T14:18:09;6.50;;;2.00;;
64339;SDS011;63709;53.258;-8.814;2023-04-24T14:20:38;6.97;;;2.00;;
64339;SDS011;63709;53.258;-8.814;2023-04-24T14:23:03;5.45;;;1.98;;
64339;SDS011;63709;53.258;-8.814;2023-04-24T14:25:29;8.82;;;1.80;;
64339;SDS011;63709;53.258;-8.814;2023-04-24T14:30:21;4.70;;;1.80;;
64339;SDS011;63709;53.258;-8.814;2023-04-24T14:32:47;5.05;;;1.70;;
64339;SDS011;63709;53.258;-8.814;2023-04-24T14:35:13;5.63;;;1.92;;
64339;SDS011;63709;53.258;-8.814;2023-04-24T14:40:06;8.80;;;1.73;;
64339;SDS011;63709;53.258;-8.814;2023-04-24T14:42:33;5.80;;;1.92;;
64339;SDS011;63709;53.258;-8.814;2023-04-24T14:44:59;4.93;;;2.10;;
64339;SDS011;63709;53.258;-8.814;2023-04-24T14:47:25;9.98;;;2.13;;
64339;SDS011;63709;53.258;-8.814;2023-04-24T14:49:52;5.55;;;1.83;;
64339;SDS011;63709;53.258;-8.814;2023-04-24T14:52:25;7.30;;;2.15;;
64339;SDS011;63709;53.258;-8.814;2023-04-24T14:54:51;10.13;;;2.55;;
64339;SDS011;63709;53.258;-8.814;2023-04-24T14:57:16;9.45;;;2.40;;
64339;SDS011;63709;53.258;-8.814;2023-04-24T14:59:42;4.28;;;1.90;;
64339;SDS011;63709;53.258;-8.814;2023-04-24T15:02:08;5.63;;;1.88;;
64339;SDS011;63709;53.258;-8.814;2023-04-24T15:04:34;7.80;;;2.10;;
64339;SDS011;63709;53.258;-8.814;2023-04-24T15:09:29;6.38;;;2.03;;
64339;SDS011;63709;53.258;-8.814;2023-04-24T15:11:56;6.68;;;2.00;;
64339;SDS011;63709;53.258;-8.814;2023-04-24T15:14:22;6.95;;;2.03;;
64339;SDS011;63709;53.258;-8.814;2023-04-24T15:16:48;6.28;;;1.75;;
64339;SDS011;63709;53.258;-8.814;2023-04-24T15:19:15;8.73;;;2.25;;
64339;SDS011;63709;53.258;-8.814;2023-04-24T15:21:40;6.20;;;1.90;;